createdAt,value
2023-10-03T00:00:56.366Z,27.57
2023-10-03T00:03:24.574Z,27.60
2023-10-03T00:05:52.574Z,26.70
2023-10-03T00:08:19.977Z,26.90
2023-10-03T00:10:46.651Z,25.97
2023-10-03T00:13:13.573Z,30.53
2023-10-03T00:15:44.858Z,30.20
2023-10-03T00:18:15.743Z,27.87
2023-10-03T00:20:44.109Z,29.97
2023-10-03T00:23:10.940Z,28.93
2023-10-03T00:25:37.867Z,27.33
2023-10-03T00:28:08.076Z,25.23
2023-10-03T00:30:37.671Z,26.67
2023-10-03T00:33:06.460Z,27.50
2023-10-03T00:35:33.447Z,29.13
2023-10-03T00:38:01.364Z,28.63
2023-10-03T00:40:28.972Z,30.43
2023-10-03T00:43:00.345Z,27.37
2023-10-03T00:45:28.276Z,26.57
2023-10-03T00:48:02.554Z,29.00
2023-10-03T00:50:32.682Z,28.23
2023-10-03T00:53:09.868Z,31.43
2023-10-03T00:55:40.902Z,24.73
2023-10-03T00:58:12.585Z,25.03
2023-10-03T01:00:47.053Z,30.73
2023-10-03T01:03:25.953Z,30.20
2023-10-03T01:05:53.582Z,25.70
2023-10-03T01:08:21.153Z,27.80
2023-10-03T01:10:48.047Z,28.90
2023-10-03T01:13:14.765Z,29.63
2023-10-03T01:15:41.515Z,31.90
2023-10-03T01:18:13.647Z,25.20
2023-10-03T01:20:43.226Z,33.70
2023-10-03T01:23:14.504Z,24.97
2023-10-03T01:25:44.210Z,27.83
2023-10-03T01:28:12.455Z,25.00
2023-10-03T01:30:42.207Z,25.30
2023-10-03T01:33:10.556Z,25.20
2023-10-03T01:35:37.297Z,28.83
2023-10-03T01:38:05.808Z,28.80
2023-10-03T01:40:32.963Z,30.50
2023-10-03T01:42:59.674Z,23.50
2023-10-03T01:45:33.532Z,30.07
2023-10-03T01:48:00.757Z,29.17
2023-10-03T01:50:30.526Z,24.73
2023-10-03T01:52:57.139Z,25.90
2023-10-03T01:55:23.712Z,25.60
2023-10-03T01:57:51.130Z,25.33
2023-10-03T02:00:25.863Z,25.93
2023-10-03T02:02:57.948Z,25.50
2023-10-03T02:05:27.385Z,29.27
2023-10-03T02:07:59.069Z,27.83
2023-10-03T02:10:27.303Z,27.40
2023-10-03T02:12:54.300Z,27.30
2023-10-03T02:15:23.634Z,21.47
2023-10-03T02:17:58.349Z,29.43
2023-10-03T02:20:31.819Z,25.80
2023-10-03T02:22:58.907Z,24.00
2023-10-03T02:25:29.120Z,24.50
2023-10-03T02:27:57.825Z,21.83
2023-10-03T02:30:28.736Z,27.53
2023-10-03T02:32:58.319Z,24.47
2023-10-03T02:35:26.961Z,27.93
2023-10-03T02:37:58.229Z,25.03
2023-10-03T02:40:28.219Z,25.67
2023-10-03T02:42:55.846Z,26.80
2023-10-03T02:45:23.966Z,27.40
2023-10-03T02:47:52.708Z,23.17
2023-10-03T02:50:19.373Z,25.07
2023-10-03T02:52:49.159Z,25.20
2023-10-03T02:55:18.160Z,25.53
2023-10-03T02:57:46.094Z,25.27
2023-10-03T03:00:13.540Z,25.73
2023-10-03T03:02:44.444Z,24.10
2023-10-03T03:05:13.030Z,28.27
2023-10-03T03:07:39.531Z,24.93
2023-10-03T03:10:07.012Z,29.67
2023-10-03T03:12:36.614Z,23.90
2023-10-03T03:15:06.123Z,25.20
2023-10-03T03:17:33.079Z,24.43
2023-10-03T03:20:00.357Z,28.47
2023-10-03T03:22:27.452Z,26.37
2023-10-03T03:24:54.729Z,26.63
2023-10-03T03:27:27.129Z,24.17
2023-10-03T03:30:19.664Z,25.93
2023-10-03T03:32:46.724Z,27.83
2023-10-03T03:35:13.456Z,24.60
2023-10-03T03:37:40.358Z,25.40
2023-10-03T03:40:14.612Z,28.80
2023-10-03T03:42:41.115Z,24.67
2023-10-03T03:45:08.391Z,19.80
2023-10-03T03:47:35.043Z,24.43
2023-10-03T03:50:11.427Z,22.50
2023-10-03T03:52:38.155Z,22.43
2023-10-03T03:55:05.291Z,23.13
2023-10-03T03:57:31.802Z,22.00
2023-10-03T03:59:58.362Z,22.37
2023-10-03T04:02:25.315Z,24.00
2023-10-03T04:04:51.833Z,24.67
2023-10-03T04:07:18.345Z,20.43
2023-10-03T04:09:45.966Z,19.70
2023-10-03T04:12:14.449Z,23.60
2023-10-03T04:14:41.005Z,20.50
2023-10-03T04:17:10.128Z,26.67
2023-10-03T04:19:36.662Z,21.10
2023-10-03T04:22:03.189Z,22.90
2023-10-03T04:24:30.455Z,25.33
2023-10-03T04:26:58.452Z,22.13
2023-10-03T04:29:25.006Z,23.90
2023-10-03T04:31:51.511Z,21.63
2023-10-03T04:34:21.551Z,23.07
2023-10-03T04:36:48.973Z,19.80
2023-10-03T04:39:15.696Z,24.67
2023-10-03T04:41:45.141Z,21.97
2023-10-03T04:44:17.367Z,21.40
2023-10-03T04:46:46.488Z,21.40
2023-10-03T04:49:13.829Z,21.03
2023-10-03T04:51:40.764Z,21.60
2023-10-03T04:54:07.386Z,25.90
2023-10-03T04:56:33.929Z,24.03
2023-10-03T04:59:01.634Z,19.80
2023-10-03T05:01:28.304Z,21.57
2023-10-03T05:03:55.373Z,21.80
2023-10-03T05:06:22.479Z,21.33
2023-10-03T05:08:49.569Z,16.63
2023-10-03T05:11:16.089Z,19.60
2023-10-03T05:13:44.644Z,23.10
2023-10-03T05:16:11.244Z,17.80
2023-10-03T05:18:38.344Z,20.13
2023-10-03T05:21:05.109Z,19.80
2023-10-03T05:23:31.708Z,19.50
2023-10-03T05:25:58.334Z,19.80
2023-10-03T05:28:24.860Z,17.60
2023-10-03T05:30:51.627Z,16.63
2023-10-03T05:33:18.281Z,18.00
2023-10-03T05:35:46.898Z,18.00
2023-10-03T05:38:13.489Z,19.17
2023-10-03T05:40:41.031Z,19.77
2023-10-03T05:43:08.588Z,19.50
2023-10-03T05:45:36.851Z,17.20
2023-10-03T05:48:05.175Z,18.60
2023-10-03T05:50:33.912Z,14.87
2023-10-03T05:53:00.867Z,14.60
2023-10-03T05:55:27.417Z,16.20
2023-10-03T05:57:54.589Z,16.83
2023-10-03T06:00:21.281Z,14.70
2023-10-03T06:02:48.823Z,12.37
2023-10-03T06:05:16.556Z,17.03
2023-10-03T06:07:44.338Z,15.90
2023-10-03T06:10:12.137Z,14.67
2023-10-03T06:12:39.233Z,14.00
2023-10-03T06:15:06.799Z,17.03
2023-10-03T06:17:34.153Z,11.90
2023-10-03T06:20:00.826Z,14.20
2023-10-03T06:22:27.664Z,16.40
2023-10-03T06:24:58.918Z,18.40
2023-10-03T06:27:28.329Z,14.73
2023-10-03T06:29:55.472Z,18.37
2023-10-03T06:32:22.359Z,16.80
2023-10-03T06:34:48.958Z,13.27
2023-10-03T06:37:15.518Z,13.83
2023-10-03T06:39:43.265Z,13.20
2023-10-03T06:42:10.137Z,13.50
2023-10-03T06:44:42.042Z,13.10
2023-10-03T06:47:10.208Z,15.67
2023-10-03T06:49:37.229Z,13.23
2023-10-03T06:52:05.096Z,15.70
2023-10-03T06:54:31.791Z,11.13
2023-10-03T06:56:58.418Z,11.93
2023-10-03T06:59:25.112Z,13.73
2023-10-03T07:01:51.994Z,13.00
2023-10-03T07:04:19.935Z,12.80
2023-10-03T07:06:47.248Z,14.50
2023-10-03T07:09:15.350Z,14.87
2023-10-03T07:11:42.412Z,16.57
2023-10-03T07:14:16.993Z,14.00
2023-10-03T07:16:47.914Z,11.10
2023-10-03T07:19:17.262Z,14.37
2023-10-03T07:21:44.111Z,12.70
2023-10-03T07:24:10.689Z,14.67
2023-10-03T07:26:37.346Z,14.57
2023-10-03T07:29:04.404Z,14.80
2023-10-03T07:31:35.305Z,14.23
2023-10-03T07:34:02.458Z,12.77
2023-10-03T07:36:29.004Z,14.17
2023-10-03T07:38:55.696Z,15.77
2023-10-03T07:41:23.067Z,12.20
2023-10-03T07:43:50.095Z,15.90
2023-10-03T07:46:24.250Z,14.60
2023-10-03T07:49:00.137Z,16.20
2023-10-03T07:51:27.943Z,14.63
2023-10-03T07:53:56.753Z,14.70
2023-10-03T07:56:32.061Z,14.33
2023-10-03T07:59:03.391Z,12.83
2023-10-03T08:01:57.385Z,16.33
2023-10-03T08:04:26.732Z,12.70
2023-10-03T08:06:53.292Z,13.57
2023-10-03T08:09:25.602Z,15.20
2023-10-03T08:11:53.672Z,11.83
2023-10-03T08:14:20.223Z,16.17
2023-10-03T08:16:48.399Z,12.40
2023-10-03T08:19:22.819Z,14.87
2023-10-03T08:21:50.178Z,12.63
2023-10-03T08:24:20.460Z,14.60
2023-10-03T08:26:52.296Z,13.10
2023-10-03T08:29:22.725Z,11.07
2023-10-03T08:32:01.420Z,14.37
2023-10-03T08:34:31.695Z,15.23
2023-10-03T08:37:03.197Z,14.90
2023-10-03T08:39:33.791Z,11.60
2023-10-03T08:42:13.475Z,15.80
2023-10-03T08:44:59.928Z,15.90
2023-10-03T08:47:39.907Z,14.60
2023-10-03T08:50:12.344Z,11.80
2023-10-03T08:52:51.162Z,14.43
2023-10-03T08:55:21.772Z,21.30
2023-10-03T08:57:50.139Z,21.13
2023-10-03T09:00:17.789Z,14.80
2023-10-03T09:02:52.643Z,12.90
2023-10-03T09:05:21.782Z,10.47
2023-10-03T09:07:48.879Z,12.83
2023-10-03T09:10:24.272Z,11.60
2023-10-03T09:12:52.364Z,11.10
2023-10-03T09:15:23.808Z,13.43
2023-10-03T09:17:54.205Z,13.97
2023-10-03T09:20:22.546Z,11.03
2023-10-03T09:22:49.839Z,11.87
2023-10-03T09:25:22.857Z,12.17
2023-10-03T09:27:49.520Z,10.37
2023-10-03T09:30:39.584Z,9.90
2023-10-03T09:33:07.570Z,12.80
2023-10-03T09:35:35.227Z,10.90
2023-10-03T09:38:09.738Z,10.60
2023-10-03T09:40:52.607Z,9.60
2023-10-03T09:43:20.813Z,7.43
2023-10-03T09:45:48.560Z,9.60
2023-10-03T09:48:17.065Z,12.50
2023-10-03T09:50:54.578Z,8.37
2023-10-03T09:53:28.968Z,10.10
2023-10-03T09:55:57.303Z,9.30
2023-10-03T09:58:32.265Z,7.83
2023-10-03T10:00:59.540Z,9.80
2023-10-03T10:03:34.439Z,9.27
2023-10-03T10:06:13.936Z,9.70
2023-10-03T10:08:59.647Z,11.77
2023-10-03T10:11:28.426Z,9.27
2023-10-03T10:14:12.200Z,17.87
2023-10-03T10:17:17.748Z,8.20
2023-10-03T10:20:09.936Z,9.07
2023-10-03T10:22:59.327Z,10.00
2023-10-03T10:25:31.688Z,7.47
2023-10-03T10:28:08.902Z,8.60
2023-10-03T10:30:36.475Z,12.77
2023-10-03T10:33:24.889Z,8.13
2023-10-03T10:36:04.568Z,9.60
2023-10-03T10:38:34.420Z,6.90
2023-10-03T10:41:18.304Z,7.70
2023-10-03T10:44:15.958Z,8.33
2023-10-03T10:46:45.721Z,11.13
2023-10-03T10:49:38.109Z,8.97
2023-10-03T10:52:11.246Z,7.53
2023-10-03T10:54:44.117Z,9.03
2023-10-03T10:57:12.217Z,8.90
2023-10-03T10:59:42.359Z,5.80
2023-10-03T11:02:19.088Z,7.23
2023-10-03T11:04:53.797Z,9.73
2023-10-03T11:07:24.361Z,8.17
2023-10-03T11:09:55.511Z,6.03
2023-10-03T11:12:29.824Z,7.67
2023-10-03T11:14:57.607Z,9.00
2023-10-03T11:17:25.392Z,8.13
2023-10-03T11:19:53.900Z,6.20
2023-10-03T11:22:20.764Z,9.40
2023-10-03T11:24:47.303Z,7.10
2023-10-03T11:27:31.049Z,8.33
2023-10-03T11:29:58.310Z,6.90
2023-10-03T11:32:32.041Z,6.80
2023-10-03T11:34:59.784Z,10.73
2023-10-03T11:37:31.115Z,7.37
2023-10-03T11:40:17.352Z,8.40
2023-10-03T11:42:45.358Z,6.37
2023-10-03T11:45:16.788Z,6.50
2023-10-03T11:47:43.565Z,10.47
2023-10-03T11:50:11.221Z,8.20
2023-10-03T11:52:39.035Z,6.40
2023-10-03T11:55:10.147Z,14.40
2023-10-03T11:57:36.778Z,14.30
2023-10-03T12:00:15.865Z,8.50
2023-10-03T12:02:51.136Z,5.77
2023-10-03T12:05:17.708Z,5.60
2023-10-03T12:07:48.433Z,7.60
2023-10-03T12:10:15.275Z,6.40
2023-10-03T12:12:41.997Z,6.03
2023-10-03T12:15:18.095Z,7.30
2023-10-03T12:17:49.877Z,7.07
2023-10-03T12:20:19.349Z,10.47
2023-10-03T12:22:48.502Z,7.50
2023-10-03T12:25:17.910Z,6.83
2023-10-03T12:27:45.549Z,8.00
2023-10-03T12:30:14.527Z,8.10
2023-10-03T12:32:42.584Z,6.00
2023-10-03T12:35:10.830Z,7.30
2023-10-03T12:37:38.853Z,7.27
2023-10-03T12:40:14.380Z,7.73
2023-10-03T12:42:45.065Z,8.67
2023-10-03T12:45:16.303Z,7.33
2023-10-03T12:47:49.061Z,11.70
2023-10-03T12:50:22.845Z,4.13
2023-10-03T12:52:49.710Z,3.90
2023-10-03T12:55:20.023Z,3.00
2023-10-03T12:57:49.701Z,3.20
2023-10-03T13:00:21.578Z,4.77
2023-10-03T13:02:50.429Z,4.20
2023-10-03T13:05:19.187Z,3.57
2023-10-03T13:07:49.165Z,2.87
2023-10-03T13:10:16.891Z,2.53
2023-10-03T13:12:43.485Z,3.87
2023-10-03T13:15:19.134Z,3.37
2023-10-03T13:17:47.182Z,2.87
2023-10-03T13:20:14.360Z,3.10
2023-10-03T13:22:43.225Z,4.97
2023-10-03T13:25:11.531Z,2.80
2023-10-03T13:27:38.489Z,3.67
2023-10-03T13:30:11.401Z,2.40
2023-10-03T13:32:39.267Z,3.37
2023-10-03T13:35:25.576Z,3.27
2023-10-03T13:37:52.759Z,3.73
2023-10-03T13:40:19.540Z,3.23
2023-10-03T13:42:48.686Z,3.83
2023-10-03T13:45:16.946Z,2.70
2023-10-03T13:47:44.481Z,3.30
2023-10-03T13:50:13.437Z,2.83
2023-10-03T13:52:42.034Z,4.90
2023-10-03T13:55:11.307Z,3.50
2023-10-03T13:57:38.710Z,4.43
2023-10-03T14:00:12.757Z,4.17
2023-10-03T14:02:40.404Z,4.33
2023-10-03T14:05:11.285Z,3.30
2023-10-03T14:07:38.295Z,3.47
2023-10-03T14:10:10.739Z,4.13
2023-10-03T14:12:37.454Z,3.43
2023-10-03T14:15:04.718Z,3.43
2023-10-03T14:17:31.411Z,4.83
2023-10-03T14:19:57.953Z,3.73
2023-10-03T14:22:24.646Z,2.37
2023-10-03T14:24:51.604Z,2.80
2023-10-03T14:27:18.223Z,5.87
2023-10-03T14:29:44.867Z,2.50
2023-10-03T14:32:12.195Z,2.90
2023-10-03T14:34:42.429Z,2.90
2023-10-03T14:37:10.591Z,2.80
2023-10-03T14:39:37.448Z,5.20
2023-10-03T14:42:04.334Z,2.70
2023-10-03T14:44:31.036Z,4.07
2023-10-03T14:46:58.667Z,2.50
2023-10-03T14:49:26.093Z,2.60
2023-10-03T14:51:53.700Z,3.80
2023-10-03T14:54:20.376Z,3.87
2023-10-03T14:56:50.073Z,4.67
2023-10-03T14:59:16.885Z,4.07
2023-10-03T15:01:44.924Z,3.13
2023-10-03T15:04:12.048Z,3.90
2023-10-03T15:06:43.713Z,2.30
2023-10-03T15:09:10.648Z,3.63
2023-10-03T15:11:37.345Z,3.13
2023-10-03T15:14:05.459Z,2.57
2023-10-03T15:16:34.336Z,2.37
2023-10-03T15:19:06.273Z,5.10
2023-10-03T15:21:35.935Z,3.10
2023-10-03T15:24:03.080Z,4.40
2023-10-03T15:26:31.163Z,3.47
2023-10-03T15:28:57.862Z,4.27
2023-10-03T15:31:25.997Z,3.40
2023-10-03T15:33:56.515Z,3.93
2023-10-03T15:36:23.208Z,8.00
2023-10-03T15:38:49.849Z,2.77
2023-10-03T15:41:16.613Z,4.23
2023-10-03T15:43:46.643Z,3.57
2023-10-03T15:46:13.280Z,3.60
2023-10-03T15:48:39.906Z,3.70
2023-10-03T15:51:13.828Z,2.30
2023-10-03T15:53:42.160Z,3.40
2023-10-03T15:56:11.249Z,4.37
2023-10-03T15:58:38.317Z,2.53
2023-10-03T16:01:04.973Z,4.50
2023-10-03T16:03:31.675Z,4.53
2023-10-03T16:05:59.135Z,2.80
2023-10-03T16:08:30.793Z,2.80
2023-10-03T16:10:58.245Z,3.03
2023-10-03T16:13:24.820Z,4.33
2023-10-03T16:15:51.478Z,2.43
2023-10-03T16:18:18.101Z,3.23
2023-10-03T16:20:47.984Z,5.00
2023-10-03T16:23:14.947Z,4.13
2023-10-03T16:25:42.327Z,2.50
2023-10-03T16:28:09.077Z,3.63
2023-10-03T16:30:35.687Z,3.10
2023-10-03T16:33:02.350Z,4.30
2023-10-03T16:35:29.013Z,4.00
2023-10-03T16:37:55.692Z,5.60
2023-10-03T16:40:23.748Z,5.93
2023-10-03T16:42:50.490Z,3.43
2023-10-03T16:45:18.747Z,5.70
2023-10-03T16:47:48.802Z,4.70
2023-10-03T16:50:17.994Z,5.80
2023-10-03T16:52:45.469Z,6.47
2023-10-03T16:55:12.957Z,3.43
2023-10-03T16:57:40.392Z,5.37
2023-10-03T17:00:13.861Z,5.20
2023-10-03T17:02:42.020Z,5.30
2023-10-03T17:05:12.171Z,5.67
2023-10-03T17:07:42.843Z,7.60
2023-10-03T17:10:16.899Z,5.00
2023-10-03T17:12:43.519Z,5.30
2023-10-03T17:15:10.986Z,4.53
2023-10-03T17:17:40.822Z,8.07
2023-10-03T17:20:09.393Z,4.53
2023-10-03T17:22:36.260Z,9.60
2023-10-03T17:25:02.945Z,5.40
2023-10-03T17:27:29.692Z,3.73
2023-10-03T17:29:56.340Z,5.13
2023-10-03T17:32:22.971Z,6.17
2023-10-03T17:34:49.525Z,12.93
2023-10-03T17:37:17.522Z,7.00
2023-10-03T17:39:45.056Z,4.90
2023-10-03T17:42:11.803Z,4.73
2023-10-03T17:44:38.430Z,4.67
2023-10-03T17:47:05.276Z,4.73
2023-10-03T17:49:32.266Z,6.30
2023-10-03T17:51:58.839Z,5.40
2023-10-03T17:54:33.780Z,5.83
2023-10-03T17:57:00.833Z,5.20
2023-10-03T17:59:27.423Z,4.43
2023-10-03T18:01:58.363Z,4.07
2023-10-03T18:04:25.209Z,6.93
2023-10-03T18:06:51.994Z,8.53
2023-10-03T18:09:23.323Z,8.20
2023-10-03T18:11:50.909Z,5.50
2023-10-03T18:14:17.850Z,8.43
2023-10-03T18:16:44.658Z,5.17
2023-10-03T18:19:11.510Z,5.67
2023-10-03T18:21:38.320Z,5.93
2023-10-03T18:24:05.534Z,5.70
2023-10-03T18:26:32.286Z,5.57
2023-10-03T18:29:00.057Z,6.50
2023-10-03T18:31:26.799Z,4.63
2023-10-03T18:33:56.926Z,6.03
2023-10-03T18:36:24.312Z,5.93
2023-10-03T18:38:51.120Z,5.70
2023-10-03T18:41:20.468Z,6.90
2023-10-03T18:43:48.647Z,5.10
2023-10-03T18:46:15.416Z,5.40
2023-10-03T18:48:42.236Z,5.43
2023-10-03T18:51:09.051Z,4.40
2023-10-03T18:53:37.170Z,5.43
2023-10-03T18:56:04.315Z,5.80
2023-10-03T18:58:30.872Z,6.83
2023-10-03T19:00:58.768Z,5.47
2023-10-03T19:03:27.493Z,4.20
2023-10-03T19:05:54.619Z,5.60
2023-10-03T19:08:21.275Z,7.47
2023-10-03T19:10:50.748Z,7.30
2023-10-03T19:13:17.369Z,4.93
2023-10-03T19:15:43.922Z,4.83
2023-10-03T19:18:10.651Z,6.47
2023-10-03T19:20:37.301Z,4.93
2023-10-03T19:23:04.331Z,4.60
2023-10-03T19:25:33.849Z,4.80
2023-10-03T19:28:02.278Z,6.83
2023-10-03T19:30:29.050Z,6.30
2023-10-03T19:32:55.865Z,3.20
2023-10-03T19:35:22.879Z,6.13
2023-10-03T19:37:49.675Z,5.83
2023-10-03T19:40:18.129Z,6.77
2023-10-03T19:42:44.918Z,6.33
2023-10-03T19:45:11.789Z,4.60
2023-10-03T19:47:38.400Z,5.73
2023-10-03T19:50:06.562Z,4.40
2023-10-03T19:52:37.025Z,5.40
2023-10-03T19:55:07.612Z,5.13
2023-10-03T19:57:38.018Z,4.33
2023-10-03T20:00:08.152Z,4.73
2023-10-03T20:02:34.901Z,5.00
2023-10-03T20:05:01.518Z,4.70
2023-10-03T20:07:28.116Z,4.60
2023-10-03T20:09:54.636Z,6.10
2023-10-03T20:12:21.570Z,5.57
2023-10-03T20:14:48.249Z,6.50
2023-10-03T20:17:15.693Z,8.10
2023-10-03T20:19:42.624Z,3.80
2023-10-03T20:22:09.402Z,5.20
2023-10-03T20:24:36.050Z,4.33
2023-10-03T20:27:02.784Z,5.97
2023-10-03T20:29:29.357Z,8.27
2023-10-03T20:31:55.945Z,6.70
2023-10-03T20:34:22.420Z,4.93
2023-10-03T20:36:49.137Z,6.20
2023-10-03T20:39:15.975Z,6.93
2023-10-03T20:41:42.648Z,4.03
2023-10-03T20:44:09.498Z,5.87
2023-10-03T20:46:36.088Z,4.90
2023-10-03T20:49:02.884Z,7.93
2023-10-03T20:51:29.734Z,6.50
2023-10-03T20:53:56.423Z,6.33
2023-10-03T20:56:22.923Z,6.73
2023-10-03T20:59:02.320Z,6.53
2023-10-03T21:01:29.006Z,3.77
2023-10-03T21:03:55.600Z,9.97
2023-10-03T21:06:22.190Z,8.83
2023-10-03T21:08:48.781Z,6.07
2023-10-03T21:11:17.439Z,7.00
2023-10-03T21:13:46.500Z,5.30
2023-10-03T21:16:13.165Z,4.70
2023-10-03T21:18:39.922Z,6.83
2023-10-03T21:21:12.536Z,5.33
2023-10-03T21:23:39.670Z,5.40
2023-10-03T21:26:07.779Z,14.77
2023-10-03T21:28:35.943Z,7.13
2023-10-03T21:31:03.749Z,4.70
2023-10-03T21:33:30.610Z,5.67
2023-10-03T21:35:57.299Z,7.17
2023-10-03T21:38:24.896Z,6.00
2023-10-03T21:40:51.456Z,6.53
2023-10-03T21:43:18.067Z,4.27
2023-10-03T21:45:44.727Z,7.33
2023-10-03T21:48:11.422Z,7.00
2023-10-03T21:50:38.574Z,4.30
2023-10-03T21:53:05.821Z,4.07
2023-10-03T21:55:32.520Z,5.70
2023-10-03T21:58:02.080Z,5.50
2023-10-03T22:00:36.232Z,4.47
2023-10-03T22:03:04.922Z,6.03
2023-10-03T22:05:32.718Z,8.63
2023-10-03T22:07:59.461Z,6.67
2023-10-03T22:10:25.980Z,5.53
2023-10-03T22:12:53.167Z,4.67
2023-10-03T22:15:20.085Z,6.47
2023-10-03T22:17:46.992Z,5.30
2023-10-03T22:20:13.878Z,3.97
2023-10-03T22:22:41.516Z,9.87
2023-10-03T22:25:11.541Z,8.23
2023-10-03T22:27:38.106Z,10.70
2023-10-03T22:30:06.842Z,4.93
2023-10-03T22:32:34.132Z,5.33
2023-10-03T22:35:00.760Z,7.27
2023-10-03T22:37:27.290Z,6.30
2023-10-03T22:39:53.826Z,8.77
2023-10-03T22:42:20.469Z,6.87
2023-10-03T22:44:47.570Z,5.40
2023-10-03T22:47:14.201Z,4.93
2023-10-03T22:49:40.705Z,6.03
2023-10-03T22:52:07.240Z,4.97
2023-10-03T22:54:35.606Z,5.10
2023-10-03T22:57:02.164Z,7.53
2023-10-03T22:59:28.784Z,6.97
2023-10-03T23:01:55.616Z,4.57
2023-10-03T23:04:22.991Z,4.80
2023-10-03T23:06:49.537Z,6.60
2023-10-03T23:09:16.104Z,5.37
2023-10-03T23:11:44.963Z,4.77
2023-10-03T23:14:11.972Z,5.40
2023-10-03T23:16:38.547Z,4.43
2023-10-03T23:19:07.093Z,5.40
2023-10-03T23:21:34.138Z,7.77
2023-10-03T23:24:00.941Z,7.53
2023-10-03T23:26:27.694Z,9.53
2023-10-03T23:28:54.236Z,5.23
2023-10-03T23:31:20.819Z,5.40
2023-10-03T23:33:47.422Z,4.43
2023-10-03T23:36:14.031Z,5.40
2023-10-03T23:38:41.183Z,8.27
2023-10-03T23:41:07.898Z,5.47
2023-10-03T23:43:34.713Z,5.70
2023-10-03T23:46:10.758Z,4.40
2023-10-03T23:48:37.748Z,5.60
2023-10-03T23:51:04.518Z,4.10
2023-10-03T23:53:31.460Z,4.50
2023-10-03T23:55:59.576Z,4.60
2023-10-03T23:58:26.425Z,6.17
